Bon Accord, Canada
Current Conditions -  °F | °C
As of 9:00 AM on Monday 26 Jan 2015 (Local Time) from CYED Reporting Station
Few Clouds Few Clouds  
Wind Chill: 28°   Ceiling: Unl
Heat Index: 34°   Visibility: 15mi
Dew Point: 30°   Wind: 7mph
Humidity: 87%   Direction: 230°SW
Pressure: 29.84"   Gusts: NA
Location:  53.83°N, 113.42°W
Report Text: CYED 261600Z 23006KT 15SM FEW120 FEW250 01/M01 A2984 RMK AC2CI0 DA1289FT FST OBS SLP130
Loading
Personal Weather Stations






























Interactive Weather Map New forecast layout! Learn more

10-Day Weather Forecast

Advertisements
Track Severe Weather on mobile